createdAt,value
2019-03-08T00:02:26.280Z,1.12
2019-03-08T00:04:54.501Z,1.35
2019-03-08T00:07:22.728Z,0.90
2019-03-08T00:09:51.259Z,0.90
2019-03-08T00:12:19.488Z,0.90
2019-03-08T00:14:47.727Z,1.00
2019-03-08T00:17:15.961Z,0.90
2019-03-08T00:19:44.185Z,0.93
2019-03-08T00:22:12.414Z,1.07
2019-03-08T00:24:40.645Z,1.10
2019-03-08T00:27:08.863Z,0.98
2019-03-08T00:29:37.097Z,0.78
2019-03-08T00:32:05.346Z,0.72
2019-03-08T00:34:33.570Z,0.75
2019-03-08T00:37:01.810Z,0.82
2019-03-08T00:39:30.052Z,0.62
2019-03-08T00:41:58.344Z,0.90
2019-03-08T00:44:26.586Z,0.78
2019-03-08T00:46:54.810Z,0.88
2019-03-08T00:49:23.032Z,0.70
2019-03-08T00:51:51.277Z,1.10
2019-03-08T00:54:19.511Z,1.00
2019-03-08T00:56:48.021Z,1.00
2019-03-08T00:59:16.243Z,0.70
2019-03-08T01:01:44.514Z,1.15
2019-03-08T01:04:12.739Z,0.82
2019-03-08T01:06:40.968Z,0.80
2019-03-08T01:09:09.204Z,0.95
2019-03-08T01:11:37.695Z,0.88
2019-03-08T01:14:05.930Z,0.75
2019-03-08T01:16:34.165Z,1.00
2019-03-08T01:19:04.038Z,1.17
2019-03-08T01:21:32.263Z,0.80
2019-03-08T01:24:00.512Z,1.25
2019-03-08T01:26:29.105Z,1.12
2019-03-08T01:28:57.348Z,0.80
2019-03-08T01:31:25.572Z,1.35
2019-03-08T01:33:53.803Z,0.90
2019-03-08T01:36:22.040Z,1.02
2019-03-08T01:38:50.285Z,1.00
2019-03-08T01:41:18.872Z,1.10
2019-03-08T01:43:47.104Z,1.10
2019-03-08T01:46:15.336Z,1.10
2019-03-08T01:48:43.574Z,1.00
2019-03-08T01:51:11.839Z,0.75
2019-03-08T01:53:40.071Z,0.82
2019-03-08T01:56:08.362Z,0.80
2019-03-08T01:58:36.606Z,0.75
2019-03-08T02:01:04.871Z,0.85
2019-03-08T02:03:33.117Z,0.70
2019-03-08T02:06:01.349Z,1.20
2019-03-08T02:08:29.584Z,1.90
2019-03-08T02:10:58.097Z,0.70
2019-03-08T02:13:26.347Z,0.68
2019-03-08T02:15:54.567Z,0.80
2019-03-08T02:18:22.830Z,1.05
2019-03-08T02:20:52.334Z,0.98
2019-03-08T02:23:20.675Z,0.57
2019-03-08T02:25:49.298Z,0.95
2019-03-08T02:28:17.536Z,0.82
2019-03-08T02:30:45.771Z,0.60
2019-03-08T02:33:14.008Z,0.33
2019-03-08T02:35:42.230Z,0.68
2019-03-08T02:38:10.471Z,0.85
2019-03-08T02:40:39.267Z,0.50
2019-03-08T02:43:13.088Z,0.95
2019-03-08T02:45:41.337Z,0.53
2019-03-08T02:48:09.575Z,0.70
2019-03-08T02:50:37.871Z,0.82
2019-03-08T02:53:06.082Z,0.62
2019-03-08T02:55:34.603Z,0.75
2019-03-08T02:58:02.817Z,0.70
2019-03-08T03:00:33.587Z,0.57
2019-03-08T03:03:01.823Z,0.53
2019-03-08T03:05:30.034Z,1.20
2019-03-08T03:07:58.292Z,0.50
2019-03-08T03:10:26.512Z,0.53
2019-03-08T03:12:54.745Z,0.50
2019-03-08T03:15:22.982Z,0.40
2019-03-08T03:17:51.204Z,0.30
2019-03-08T03:20:19.430Z,0.50
2019-03-08T03:22:47.677Z,0.70
2019-03-08T03:25:16.198Z,0.30
2019-03-08T03:27:44.443Z,0.37
2019-03-08T03:30:17.980Z,0.50
2019-03-08T03:32:46.210Z,0.40
2019-03-08T03:35:14.422Z,0.28
2019-03-08T03:37:42.673Z,0.30
2019-03-08T03:40:13.911Z,0.30
2019-03-08T03:42:42.135Z,0.50
2019-03-08T03:45:12.315Z,0.35
2019-03-08T03:47:40.534Z,0.10
2019-03-08T03:50:11.193Z,0.42
2019-03-08T03:52:39.692Z,0.42
2019-03-08T03:55:14.373Z,0.50
2019-03-08T03:57:42.610Z,0.23
2019-03-08T04:00:24.146Z,0.37
2019-03-08T04:02:52.763Z,0.40
2019-03-08T04:05:20.986Z,0.50
2019-03-08T04:07:49.240Z,0.50
2019-03-08T04:10:17.897Z,0.15
2019-03-08T04:12:46.121Z,0.25
2019-03-08T04:15:18.687Z,0.40
2019-03-08T04:17:47.094Z,0.50
2019-03-08T04:20:16.518Z,0.30
2019-03-08T04:22:44.759Z,0.30
2019-03-08T04:25:13.783Z,0.30
2019-03-08T04:27:42.087Z,0.53
2019-03-08T04:30:13.238Z,0.42
2019-03-08T04:32:41.494Z,0.55
2019-03-08T04:35:09.728Z,0.30
2019-03-08T04:37:37.964Z,0.45
2019-03-08T04:40:10.484Z,0.33
2019-03-08T04:42:38.727Z,0.30
2019-03-08T04:45:11.913Z,0.45
2019-03-08T04:47:40.149Z,0.55
2019-03-08T04:50:10.611Z,0.72
2019-03-08T04:52:38.873Z,0.30
2019-03-08T04:55:10.291Z,0.35
2019-03-08T04:57:38.508Z,0.50
2019-03-08T05:00:10.288Z,0.30
2019-03-08T05:02:38.500Z,0.20
2019-03-08T05:05:06.891Z,0.20
2019-03-08T05:07:35.142Z,0.37
2019-03-08T05:10:04.990Z,0.30
2019-03-08T05:12:33.246Z,0.30
2019-03-08T05:15:01.505Z,0.40
2019-03-08T05:17:29.727Z,0.10
2019-03-08T05:19:57.978Z,0.37
2019-03-08T05:22:26.210Z,0.30
2019-03-08T05:24:54.468Z,0.45
2019-03-08T05:27:22.696Z,0.17
2019-03-08T05:29:51.029Z,0.15
2019-03-08T05:32:19.298Z,0.40
2019-03-08T05:34:47.520Z,0.40
2019-03-08T05:37:15.760Z,0.10
2019-03-08T05:39:44.001Z,0.30
2019-03-08T05:42:12.229Z,0.30
2019-03-08T05:44:40.742Z,0.35
2019-03-08T05:47:08.958Z,0.47
2019-03-08T05:49:37.206Z,0.47
2019-03-08T05:52:05.431Z,0.53
2019-03-08T05:54:33.685Z,0.82
2019-03-08T05:57:01.926Z,0.70
2019-03-08T05:59:30.147Z,0.40
2019-03-08T06:01:58.392Z,0.30
2019-03-08T06:04:26.601Z,0.70
2019-03-08T06:06:54.866Z,0.30
2019-03-08T06:09:23.100Z,0.57
2019-03-08T06:11:51.338Z,0.53
2019-03-08T06:14:19.571Z,0.30
2019-03-08T06:16:48.165Z,0.30
2019-03-08T06:19:16.422Z,0.42
2019-03-08T06:21:44.643Z,0.50
2019-03-08T06:24:12.885Z,0.42
2019-03-08T06:26:41.102Z,0.40
2019-03-08T06:29:09.327Z,0.70
2019-03-08T06:31:37.560Z,0.57
2019-03-08T06:34:05.803Z,0.33
2019-03-08T06:36:34.036Z,0.45
2019-03-08T06:39:02.276Z,0.65
2019-03-08T06:41:30.648Z,0.85
2019-03-08T06:43:58.927Z,0.88
2019-03-08T06:46:27.294Z,0.75
2019-03-08T06:48:57.669Z,0.60
2019-03-08T06:51:25.975Z,0.93
2019-03-08T06:53:54.223Z,1.00
2019-03-08T06:56:22.460Z,0.78
2019-03-08T06:58:52.335Z,1.10
2019-03-08T07:01:22.142Z,0.90
2019-03-08T07:03:50.541Z,0.57
2019-03-08T07:06:18.783Z,0.80
2019-03-08T07:08:47.003Z,0.90
2019-03-08T07:11:15.248Z,0.70
2019-03-08T07:13:43.476Z,0.60
2019-03-08T07:16:13.534Z,0.75
2019-03-08T07:18:41.694Z,0.90
2019-03-08T07:21:20.477Z,1.20
2019-03-08T07:23:50.382Z,0.93
2019-03-08T07:26:20.285Z,1.00
2019-03-08T07:28:52.927Z,0.80
2019-03-08T07:31:22.858Z,0.90
2019-03-08T07:34:11.150Z,0.72
2019-03-08T07:36:41.125Z,0.90
2019-03-08T07:39:25.975Z,0.90
2019-03-08T07:41:55.858Z,0.80
2019-03-08T07:44:43.974Z,0.90
2019-03-08T07:47:16.566Z,0.82
2019-03-08T07:49:46.524Z,1.05
2019-03-08T07:52:31.363Z,0.75
2019-03-08T07:55:19.356Z,0.85
2019-03-08T07:58:01.428Z,0.80
2019-03-08T08:00:33.944Z,0.70
2019-03-08T08:03:23.243Z,1.02
2019-03-08T08:05:58.288Z,0.98
2019-03-08T08:08:27.494Z,1.12
2019-03-08T08:11:13.753Z,0.60
2019-03-08T08:14:00.110Z,0.68
2019-03-08T08:16:46.425Z,0.60
2019-03-08T08:19:32.963Z,0.98
2019-03-08T08:22:02.853Z,0.80
2019-03-08T08:24:41.998Z,0.85
2019-03-08T08:27:31.289Z,0.80
2019-03-08T08:30:09.884Z,0.62
2019-03-08T08:32:40.183Z,0.75
2019-03-08T08:35:23.092Z,0.95
2019-03-08T08:38:04.941Z,1.27
2019-03-08T08:40:51.281Z,1.05
2019-03-08T08:43:27.167Z,0.75
2019-03-08T08:45:57.069Z,0.72
2019-03-08T08:48:29.922Z,0.88
2019-03-08T08:50:59.814Z,0.62
2019-03-08T08:53:46.216Z,1.00
2019-03-08T08:56:22.216Z,1.40
2019-03-08T08:58:52.115Z,1.27
2019-03-08T09:01:28.019Z,0.70
2019-03-08T09:03:57.997Z,0.88
2019-03-08T09:06:27.890Z,0.65
2019-03-08T09:09:00.699Z,0.68
2019-03-08T09:11:44.162Z,0.80
2019-03-08T09:14:07.991Z,0.90
2019-03-08T09:16:44.086Z,1.25
2019-03-08T09:19:13.963Z,1.05
2019-03-08T09:21:43.836Z,0.80
2019-03-08T09:24:16.680Z,1.10
2019-03-08T09:26:46.580Z,0.78
2019-03-08T09:29:40.805Z,1.30
2019-03-08T09:32:09.238Z,0.80
2019-03-08T09:34:39.493Z,1.17
2019-03-08T09:37:25.659Z,0.80
2019-03-08T09:40:11.992Z,0.88
2019-03-08T09:42:58.636Z,1.85
2019-03-08T09:45:34.779Z,0.78
2019-03-08T09:48:19.909Z,0.70
2019-03-08T09:50:49.832Z,0.90
2019-03-08T09:53:36.350Z,0.60
2019-03-08T09:56:12.338Z,0.90
2019-03-08T09:58:42.387Z,0.78
2019-03-08T10:01:20.733Z,0.85
2019-03-08T10:03:59.567Z,0.60
2019-03-08T10:06:41.287Z,0.90
2019-03-08T10:09:11.158Z,1.00
2019-03-08T10:11:50.146Z,1.02
2019-03-08T10:14:25.542Z,0.82
2019-03-08T10:16:58.378Z,0.95
2019-03-08T10:19:28.246Z,0.90
2019-03-08T10:22:07.202Z,0.72
2019-03-08T10:24:37.279Z,0.60
2019-03-08T10:27:07.162Z,0.80
2019-03-08T10:29:53.960Z,0.60
2019-03-08T10:32:39.920Z,1.25
2019-03-08T10:35:23.129Z,1.05
2019-03-08T10:37:44.759Z,0.65
2019-03-08T10:40:17.993Z,1.02
2019-03-08T10:42:58.810Z,0.75
2019-03-08T10:45:28.884Z,0.40
2019-03-08T10:47:58.812Z,0.93
2019-03-08T10:50:28.698Z,0.50
2019-03-08T10:53:01.608Z,1.32
2019-03-08T10:55:48.041Z,1.32
2019-03-08T10:58:34.224Z,1.00
2019-03-08T11:01:04.148Z,0.60
2019-03-08T11:03:34.039Z,1.10
2019-03-08T11:06:22.307Z,1.10
2019-03-08T11:08:54.969Z,1.02
2019-03-08T11:11:30.552Z,1.07
2019-03-08T11:14:09.371Z,1.17
2019-03-08T11:16:51.486Z,0.85
2019-03-08T11:19:24.333Z,0.60
2019-03-08T11:21:54.198Z,0.55
2019-03-08T11:24:24.477Z,0.65
2019-03-08T11:27:04.722Z,0.95
2019-03-08T11:29:34.631Z,1.20
2019-03-08T11:32:22.726Z,0.78
2019-03-08T11:35:06.054Z,0.57
2019-03-08T11:37:35.917Z,0.82
2019-03-08T11:40:11.136Z,0.80
2019-03-08T11:42:44.390Z,0.68
2019-03-08T11:45:20.399Z,0.50
2019-03-08T11:47:52.962Z,1.10
2019-03-08T11:50:25.541Z,0.70
2019-03-08T11:52:58.492Z,1.05
2019-03-08T11:55:28.378Z,0.85
2019-03-08T11:57:58.243Z,1.27
2019-03-08T12:00:44.750Z,0.70
2019-03-08T12:06:11.105Z,1.32
2019-03-08T12:08:52.966Z,2.58
2019-03-08T12:11:39.402Z,0.88
2019-03-08T12:14:15.418Z,1.57
2019-03-08T12:16:51.154Z,0.70
2019-03-08T12:19:39.386Z,1.60
2019-03-08T12:22:09.247Z,1.12
2019-03-08T12:24:39.133Z,1.67
2019-03-08T12:27:14.992Z,1.27
2019-03-08T12:29:53.867Z,0.80
2019-03-08T12:32:40.215Z,0.70
2019-03-08T12:35:10.913Z,1.47
2019-03-08T12:37:40.789Z,1.70
2019-03-08T12:40:12.195Z,1.87
2019-03-08T12:42:44.832Z,1.50
2019-03-08T12:45:26.502Z,1.25
2019-03-08T12:47:56.389Z,0.80
2019-03-08T12:50:44.629Z,1.40
2019-03-08T12:53:23.473Z,1.37
2019-03-08T12:55:59.279Z,0.90
2019-03-08T12:58:40.949Z,0.98
2019-03-08T13:01:13.583Z,1.02
2019-03-08T13:03:43.439Z,0.90
2019-03-08T13:06:16.014Z,1.52
2019-03-08T13:08:45.896Z,9.78
2019-03-08T13:11:14.128Z,8.08
2019-03-08T13:13:42.376Z,5.95
2019-03-08T13:16:10.873Z,2.00
2019-03-08T13:18:39.151Z,1.90
2019-03-08T13:21:07.402Z,7.20
2019-03-08T13:23:35.648Z,1.17
2019-03-08T13:26:03.883Z,0.95
2019-03-08T13:28:32.118Z,1.80
2019-03-08T13:31:00.721Z,0.95
2019-03-08T13:33:28.957Z,0.82
2019-03-08T13:35:57.180Z,0.82
2019-03-08T13:38:25.444Z,1.05
2019-03-08T13:40:53.688Z,1.17
2019-03-08T13:43:21.912Z,6.28
2019-03-08T13:45:50.163Z,7.70
2019-03-08T13:48:18.404Z,1.22
2019-03-08T13:50:46.670Z,0.70
2019-03-08T13:53:14.989Z,1.22
2019-03-08T13:55:43.218Z,1.27
2019-03-08T13:58:11.525Z,2.20
2019-03-08T14:00:39.840Z,1.47
2019-03-08T14:03:08.077Z,1.35
2019-03-08T14:05:36.307Z,1.22
2019-03-08T14:08:04.565Z,1.32
2019-03-08T14:10:32.815Z,0.90
2019-03-08T14:13:01.102Z,0.88
2019-03-08T14:15:29.374Z,1.07
2019-03-08T14:17:57.627Z,1.62
2019-03-08T14:20:27.006Z,1.55
2019-03-08T14:22:55.247Z,1.62
2019-03-08T14:25:23.479Z,1.30
2019-03-08T14:27:51.721Z,1.22
2019-03-08T14:30:26.883Z,1.75
2019-03-08T14:32:57.922Z,1.20
2019-03-08T14:35:26.094Z,1.22
2019-03-08T14:37:56.033Z,2.05
2019-03-08T14:40:43.248Z,2.05
2019-03-08T14:43:16.923Z,1.15
2019-03-08T14:46:04.368Z,1.45
2019-03-08T14:48:32.667Z,1.60
2019-03-08T14:51:01.068Z,1.40
2019-03-08T14:53:32.878Z,1.27
2019-03-08T14:55:59.970Z,1.22
2019-03-08T14:58:28.398Z,1.25
2019-03-08T15:00:56.619Z,1.42
2019-03-08T15:03:24.929Z,1.45
2019-03-08T15:05:54.816Z,0.82
2019-03-08T15:08:23.148Z,1.10
2019-03-08T15:10:51.490Z,0.88
2019-03-08T15:13:20.132Z,1.40
2019-03-08T15:15:49.756Z,0.90
2019-03-08T15:18:18.013Z,1.32
2019-03-08T15:20:46.230Z,1.20
2019-03-08T15:23:17.220Z,1.30
2019-03-08T15:25:45.346Z,1.15
2019-03-08T15:28:14.402Z,0.75
2019-03-08T15:30:43.033Z,1.12
2019-03-08T15:33:11.262Z,1.20
2019-03-08T15:35:39.505Z,0.82
2019-03-08T15:38:07.765Z,0.68
2019-03-08T15:40:36.117Z,0.95
2019-03-08T15:43:04.343Z,1.10
2019-03-08T15:45:32.848Z,1.05
2019-03-08T15:48:01.122Z,1.10
2019-03-08T15:50:29.413Z,0.90
2019-03-08T15:52:57.692Z,0.75
2019-03-08T15:55:25.932Z,0.95
2019-03-08T15:57:54.173Z,1.02
2019-03-08T16:00:23.337Z,1.07
2019-03-08T16:02:51.637Z,1.00
2019-03-08T16:05:23.988Z,0.95
2019-03-08T16:07:50.777Z,1.27
2019-03-08T16:10:22.626Z,1.05
2019-03-08T16:12:50.933Z,1.27
2019-03-08T16:15:19.441Z,1.95
2019-03-08T16:17:47.682Z,1.25
2019-03-08T16:20:22.558Z,2.02
2019-03-08T16:22:50.788Z,1.67
2019-03-08T16:25:19.414Z,1.70
2019-03-08T16:27:47.653Z,2.40
2019-03-08T16:30:26.305Z,1.42
2019-03-08T16:33:13.140Z,2.00
2019-03-08T16:38:12.237Z,0.85
2019-03-08T16:40:42.362Z,1.72
2019-03-08T16:43:24.589Z,1.67
2019-03-08T16:45:57.386Z,1.55
2019-03-08T16:48:27.210Z,1.47
2019-03-08T16:51:05.840Z,1.50
2019-03-08T16:53:44.910Z,1.25
2019-03-08T16:56:26.822Z,1.47
2019-03-08T16:59:11.816Z,1.47
2019-03-08T17:01:50.953Z,1.25
2019-03-08T17:04:20.846Z,2.47
2019-03-08T17:07:07.274Z,2.40
2019-03-08T17:09:46.199Z,1.82
2019-03-08T17:12:19.033Z,1.70
2019-03-08T17:14:48.909Z,1.50
2019-03-08T17:17:35.729Z,1.47
2019-03-08T17:20:13.635Z,1.75
2019-03-08T17:22:49.346Z,2.17
2019-03-08T17:25:25.226Z,2.47
2019-03-08T17:27:57.829Z,2.67
2019-03-08T17:30:27.698Z,2.80
2019-03-08T17:33:00.828Z,2.42
2019-03-08T17:35:30.708Z,1.32
2019-03-08T17:38:12.591Z,2.30
2019-03-08T17:40:42.463Z,3.52
2019-03-08T17:43:28.917Z,2.95
2019-03-08T17:46:15.499Z,3.12
2019-03-08T17:48:51.443Z,5.37
2019-03-08T17:51:21.335Z,3.10
2019-03-08T17:53:54.223Z,2.62
2019-03-08T17:56:29.988Z,2.25
2019-03-08T17:59:02.483Z,1.90
2019-03-08T18:01:32.353Z,1.70
2019-03-08T18:04:02.227Z,1.77
2019-03-08T18:06:48.540Z,1.70
2019-03-08T18:09:21.333Z,1.52
2019-03-08T18:11:53.958Z,1.60
2019-03-08T18:14:23.844Z,1.80
2019-03-08T18:16:53.734Z,1.60
2019-03-08T18:19:29.633Z,2.00
2019-03-08T18:21:59.501Z,2.25
2019-03-08T18:24:32.515Z,2.12
2019-03-08T18:27:02.397Z,1.92
2019-03-08T18:29:35.259Z,2.67
2019-03-08T18:32:11.058Z,2.00
2019-03-08T18:34:40.931Z,2.20
2019-03-08T18:37:23.046Z,2.55
2019-03-08T18:39:52.944Z,1.82
2019-03-08T18:42:35.122Z,1.95
2019-03-08T18:45:15.433Z,2.02
2019-03-08T18:48:01.869Z,2.33
2019-03-08T18:50:34.863Z,2.10
2019-03-08T18:53:16.812Z,3.98
2019-03-08T18:55:58.967Z,2.40
2019-03-08T18:58:46.791Z,2.35
2019-03-08T19:01:25.454Z,2.25
2019-03-08T19:03:58.057Z,1.92
2019-03-08T19:06:30.761Z,2.42
2019-03-08T19:09:15.951Z,3.40
2019-03-08T19:11:45.826Z,2.55
2019-03-08T19:14:18.820Z,3.98
2019-03-08T19:16:48.722Z,3.37
2019-03-08T19:19:27.408Z,3.90
2019-03-08T19:21:57.280Z,3.67
2019-03-08T19:24:39.266Z,3.55
2019-03-08T19:27:11.849Z,3.30
2019-03-08T19:29:47.815Z,3.22
2019-03-08T19:32:23.449Z,3.58
2019-03-08T19:34:53.338Z,4.03
2019-03-08T19:37:24.560Z,5.15
2019-03-08T19:40:03.881Z,5.37
2019-03-08T19:42:36.318Z,5.37
2019-03-08T19:45:08.900Z,5.42
2019-03-08T19:47:41.806Z,4.72
2019-03-08T19:50:29.972Z,4.47
2019-03-08T19:52:59.904Z,4.10
2019-03-08T19:55:29.762Z,4.00
2019-03-08T19:58:16.675Z,4.60
2019-03-08T20:01:05.036Z,4.25
2019-03-08T20:03:34.917Z,4.42
2019-03-08T20:06:19.934Z,4.15
2019-03-08T20:08:52.772Z,3.85
2019-03-08T20:11:25.651Z,4.08
2019-03-08T20:14:01.170Z,4.30
2019-03-08T20:16:47.611Z,4.12
2019-03-08T20:19:20.453Z,4.05
2019-03-08T20:21:59.487Z,3.70
2019-03-08T20:24:33.736Z,3.37
2019-03-08T20:27:09.597Z,3.98
2019-03-08T20:29:40.037Z,4.15
2019-03-08T20:32:28.133Z,3.90
2019-03-08T20:35:00.915Z,3.92
2019-03-08T20:37:30.799Z,3.40
2019-03-08T20:40:12.226Z,3.65
2019-03-08T20:42:42.156Z,3.25
2019-03-08T20:45:12.494Z,3.40
2019-03-08T20:47:40.753Z,3.35
2019-03-08T20:50:11.238Z,3.58
2019-03-08T20:52:39.483Z,3.25
2019-03-08T20:55:09.960Z,3.33
2019-03-08T20:57:38.215Z,3.45
2019-03-08T21:00:09.854Z,3.45
2019-03-08T21:02:38.074Z,3.70
2019-03-08T21:05:07.461Z,3.52
2019-03-08T21:07:35.692Z,3.47
2019-03-08T21:10:07.194Z,3.52
2019-03-08T21:12:35.418Z,3.62
2019-03-08T21:15:06.041Z,3.80
2019-03-08T21:17:34.273Z,3.70
2019-03-08T21:20:02.535Z,3.40
2019-03-08T21:22:30.756Z,4.47
2019-03-08T21:24:59.934Z,3.50
2019-03-08T21:27:28.605Z,3.70
2019-03-08T21:29:56.832Z,3.65
2019-03-08T21:32:25.076Z,3.20
2019-03-08T21:34:53.302Z,3.50
2019-03-08T21:37:21.545Z,3.33
2019-03-08T21:39:49.790Z,3.62
2019-03-08T21:42:18.331Z,2.98
2019-03-08T21:44:46.535Z,3.08
2019-03-08T21:47:14.767Z,2.70
2019-03-08T21:49:43.018Z,3.47
2019-03-08T21:52:11.258Z,2.87
2019-03-08T21:54:39.487Z,2.98
2019-03-08T21:57:07.711Z,2.62
2019-03-08T21:59:36.478Z,2.33
2019-03-08T22:02:04.779Z,3.05
2019-03-08T22:04:34.687Z,2.00
2019-03-08T22:07:02.932Z,2.80
2019-03-08T22:09:33.184Z,2.17
2019-03-08T22:12:01.405Z,2.12
2019-03-08T22:14:29.676Z,2.17
2019-03-08T22:16:57.901Z,2.55
2019-03-08T22:19:26.109Z,2.52
2019-03-08T22:21:54.366Z,2.30
2019-03-08T22:24:22.587Z,2.20
2019-03-08T22:26:50.829Z,2.47
2019-03-08T22:29:19.098Z,1.80
2019-03-08T22:31:47.310Z,2.17
2019-03-08T22:34:15.549Z,2.98
2019-03-08T22:36:44.059Z,2.30
2019-03-08T22:39:12.291Z,2.75
2019-03-08T22:41:40.535Z,3.20
2019-03-08T22:44:08.790Z,2.22
2019-03-08T22:46:45.012Z,2.42
2019-03-08T22:49:07.005Z,2.77
2019-03-08T22:51:35.231Z,2.58
2019-03-08T22:54:03.469Z,2.40
2019-03-08T22:56:31.723Z,2.10
2019-03-08T22:58:59.935Z,2.33
2019-03-08T23:01:29.800Z,3.05
2019-03-08T23:03:58.234Z,2.67
2019-03-08T23:06:26.458Z,2.45
2019-03-08T23:08:54.697Z,2.42
2019-03-08T23:11:22.924Z,3.02
2019-03-08T23:13:51.184Z,2.47
2019-03-08T23:16:19.408Z,2.30
2019-03-08T23:18:47.631Z,2.58
2019-03-08T23:21:15.968Z,1.95
2019-03-08T23:23:44.205Z,1.98
2019-03-08T23:26:12.422Z,2.35
2019-03-08T23:28:51.198Z,2.17
2019-03-08T23:31:21.098Z,1.92
2019-03-08T23:33:49.373Z,2.12
2019-03-08T23:36:17.611Z,2.10
2019-03-08T23:38:45.840Z,2.87
2019-03-08T23:41:14.102Z,2.52
2019-03-08T23:43:42.338Z,1.90
2019-03-08T23:46:10.579Z,1.67
2019-03-08T23:48:38.799Z,2.22
2019-03-08T23:51:26.485Z,2.08
2019-03-08T23:53:54.703Z,2.25
2019-03-08T23:56:22.932Z,2.40
2019-03-08T23:58:51.170Z,2.22
